createdAt,value
2018-12-04T00:01:14.870Z,10.30
2018-12-04T00:03:42.383Z,10.30
2018-12-04T00:06:09.874Z,10.30
2018-12-04T00:08:37.391Z,10.30
2018-12-04T00:11:04.904Z,10.30
2018-12-04T00:13:32.406Z,10.30
2018-12-04T00:15:59.897Z,10.20
2018-12-04T00:18:27.407Z,10.20
2018-12-04T00:20:54.901Z,10.10
2018-12-04T00:23:22.399Z,10.10
2018-12-04T00:25:49.904Z,10.10
2018-12-04T00:28:17.393Z,10.00
2018-12-04T00:30:44.886Z,10.10
2018-12-04T00:33:12.393Z,10.10
2018-12-04T00:35:39.885Z,10.00
2018-12-04T00:38:07.402Z,9.90
2018-12-04T00:40:35.078Z,10.00
2018-12-04T00:43:02.599Z,10.10
2018-12-04T00:45:30.150Z,10.10
2018-12-04T00:47:57.643Z,10.10
2018-12-04T00:50:25.137Z,10.10
2018-12-04T00:52:52.645Z,10.10
2018-12-04T00:55:20.139Z,10.10
2018-12-04T00:57:47.666Z,10.10
2018-12-04T01:00:15.155Z,10.10
2018-12-04T01:02:42.658Z,10.10
2018-12-04T01:05:10.248Z,10.10
2018-12-04T01:07:37.761Z,10.00
2018-12-04T01:10:06.333Z,10.10
2018-12-04T01:12:33.854Z,10.00
2018-12-04T01:15:01.352Z,10.00
2018-12-04T01:17:28.978Z,9.90
2018-12-04T01:19:56.467Z,9.90
2018-12-04T01:22:23.971Z,9.90
2018-12-04T01:24:51.463Z,9.80
2018-12-04T01:27:18.955Z,9.80
2018-12-04T01:29:46.458Z,9.80
2018-12-04T01:32:13.953Z,9.80
2018-12-04T01:34:41.460Z,9.80
2018-12-04T01:37:08.944Z,9.80
2018-12-04T01:39:36.451Z,9.80
2018-12-04T01:42:03.955Z,9.80
2018-12-04T01:44:31.454Z,9.80
2018-12-04T01:46:58.982Z,9.80
2018-12-04T01:49:26.470Z,9.70
2018-12-04T01:51:53.954Z,9.60
2018-12-04T01:54:21.457Z,9.60
2018-12-04T01:56:48.947Z,9.60
2018-12-04T01:59:16.478Z,9.60
2018-12-04T02:01:43.960Z,9.60
2018-12-04T02:04:11.473Z,9.60
2018-12-04T02:06:38.969Z,9.60
2018-12-04T02:09:06.544Z,9.70
2018-12-04T02:11:34.054Z,9.70
2018-12-04T02:14:01.548Z,9.80
2018-12-04T02:16:29.047Z,9.80
2018-12-04T02:18:56.546Z,9.80
2018-12-04T02:21:24.038Z,9.80
2018-12-04T02:23:51.542Z,9.80
2018-12-04T02:26:19.119Z,9.80
2018-12-04T02:28:46.602Z,9.80
2018-12-04T02:31:14.137Z,9.90
2018-12-04T02:33:41.622Z,9.90
2018-12-04T02:36:09.114Z,9.80
2018-12-04T02:38:36.619Z,9.90
2018-12-04T02:41:04.115Z,9.90
2018-12-04T02:43:31.625Z,9.90
2018-12-04T02:45:59.138Z,9.90
2018-12-04T02:48:26.631Z,10.00
2018-12-04T02:50:54.154Z,10.00
2018-12-04T02:53:21.650Z,10.10
2018-12-04T02:55:49.155Z,10.10
2018-12-04T02:58:16.790Z,10.10
2018-12-04T03:00:44.288Z,10.20
2018-12-04T03:03:11.797Z,10.10
2018-12-04T03:05:39.281Z,10.20
2018-12-04T03:08:06.768Z,10.20
2018-12-04T03:10:34.284Z,10.10
2018-12-04T03:13:01.778Z,10.00
2018-12-04T03:15:29.286Z,10.00
2018-12-04T03:17:56.782Z,9.90
2018-12-04T03:20:24.270Z,9.80
2018-12-04T03:22:51.794Z,9.80
2018-12-04T03:25:19.274Z,9.70
2018-12-04T03:27:46.786Z,9.70
2018-12-04T03:30:14.274Z,9.70
2018-12-04T03:32:41.766Z,9.70
2018-12-04T03:35:09.274Z,9.70
2018-12-04T03:37:36.760Z,9.60
2018-12-04T03:40:06.534Z,9.60
2018-12-04T03:42:34.032Z,9.60
2018-12-04T03:45:02.194Z,9.60
2018-12-04T03:47:29.700Z,9.60
2018-12-04T03:49:57.219Z,9.40
2018-12-04T03:52:24.730Z,9.50
2018-12-04T03:54:52.219Z,9.50
2018-12-04T03:57:19.701Z,9.50
2018-12-04T03:59:47.200Z,9.50
2018-12-04T04:02:14.701Z,9.60
2018-12-04T04:04:42.206Z,9.60
2018-12-04T04:07:09.698Z,9.60
2018-12-04T04:09:37.181Z,9.60
2018-12-04T04:12:04.688Z,9.60
2018-12-04T04:14:32.187Z,9.60
2018-12-04T04:16:59.692Z,9.60
2018-12-04T04:19:27.175Z,9.60
2018-12-04T04:21:54.672Z,9.60
2018-12-04T04:24:22.177Z,9.60
2018-12-04T04:26:49.690Z,9.60
2018-12-04T04:29:17.193Z,9.60
2018-12-04T04:31:44.672Z,9.50
2018-12-04T04:34:12.154Z,9.50
2018-12-04T04:36:39.670Z,9.60
2018-12-04T04:39:07.313Z,9.60
2018-12-04T04:41:34.830Z,9.50
2018-12-04T04:44:02.398Z,9.50
2018-12-04T04:46:29.898Z,9.50
2018-12-04T04:48:57.519Z,9.50
2018-12-04T04:51:25.006Z,9.50
2018-12-04T04:53:52.503Z,9.50
2018-12-04T04:56:19.992Z,9.50
2018-12-04T04:58:47.477Z,9.60
2018-12-04T05:01:14.983Z,9.60
2018-12-04T05:03:42.600Z,9.50
2018-12-04T05:06:10.107Z,9.50
2018-12-04T05:08:37.602Z,9.50
2018-12-04T05:11:05.084Z,9.40
2018-12-04T05:13:32.618Z,9.30
2018-12-04T05:16:00.098Z,9.30
2018-12-04T05:18:27.615Z,9.30
2018-12-04T05:20:55.106Z,9.40
2018-12-04T05:23:22.600Z,9.30
2018-12-04T05:25:50.099Z,9.30
2018-12-04T05:28:17.583Z,9.30
2018-12-04T05:30:45.102Z,9.30
2018-12-04T05:33:12.585Z,9.40
2018-12-04T05:35:40.087Z,9.40
2018-12-04T05:38:07.701Z,9.20
2018-12-04T05:40:35.193Z,9.30
2018-12-04T05:43:02.693Z,9.20
2018-12-04T05:45:30.179Z,9.20
2018-12-04T05:47:57.669Z,9.20
2018-12-04T05:50:25.171Z,9.20
2018-12-04T05:53:04.559Z,9.30
2018-12-04T05:55:32.095Z,9.30
2018-12-04T05:57:59.581Z,9.20
2018-12-04T06:00:27.111Z,9.20
2018-12-04T06:02:54.593Z,9.20
2018-12-04T06:05:22.114Z,9.30
2018-12-04T06:07:49.617Z,9.30
2018-12-04T06:10:17.131Z,9.30
2018-12-04T06:12:44.638Z,9.30
2018-12-04T06:15:12.123Z,9.20
2018-12-04T06:17:39.609Z,9.10
2018-12-04T06:20:07.118Z,9.00
2018-12-04T06:22:34.604Z,9.00
2018-12-04T06:25:02.105Z,9.00
2018-12-04T06:27:29.614Z,9.00
2018-12-04T06:29:57.099Z,9.00
2018-12-04T06:32:24.598Z,8.90
2018-12-04T06:34:52.116Z,8.90
2018-12-04T06:37:19.620Z,8.90
2018-12-04T06:39:47.207Z,9.00
2018-12-04T06:42:14.694Z,9.00
2018-12-04T06:44:46.763Z,9.00
2018-12-04T06:47:11.753Z,9.00
2018-12-04T06:49:39.258Z,9.00
2018-12-04T06:52:06.775Z,8.90
2018-12-04T06:54:34.267Z,8.90
2018-12-04T06:57:01.770Z,8.90
2018-12-04T06:59:29.258Z,8.80
2018-12-04T07:01:56.767Z,8.90
2018-12-04T07:04:24.268Z,8.80
2018-12-04T07:06:51.758Z,8.90
2018-12-04T07:09:19.280Z,8.80
2018-12-04T07:11:46.767Z,8.70
2018-12-04T07:14:14.348Z,8.60
2018-12-04T07:16:41.836Z,8.60
2018-12-04T07:19:09.359Z,8.50
2018-12-04T07:21:36.851Z,8.50
2018-12-04T07:24:04.338Z,8.40
2018-12-04T07:26:31.841Z,8.30
2018-12-04T07:28:59.330Z,8.30
2018-12-04T07:31:26.837Z,8.10
2018-12-04T07:33:54.326Z,8.00
2018-12-04T07:36:21.818Z,7.90
2018-12-04T07:38:49.380Z,7.90
2018-12-04T07:41:16.866Z,7.90
2018-12-04T07:43:44.400Z,7.80
2018-12-04T07:46:11.909Z,7.80
2018-12-04T07:48:39.580Z,7.70
2018-12-04T07:51:07.086Z,7.80
2018-12-04T07:53:34.567Z,7.70
2018-12-04T07:56:02.399Z,7.70
2018-12-04T07:58:29.985Z,7.70
2018-12-04T08:00:57.485Z,7.60
2018-12-04T08:03:25.967Z,7.50
2018-12-04T08:05:53.599Z,7.50
2018-12-04T08:08:21.134Z,7.30
2018-12-04T08:10:48.625Z,7.30
2018-12-04T08:13:16.159Z,7.40
2018-12-04T08:15:43.655Z,7.50
2018-12-04T08:18:11.139Z,7.50
2018-12-04T08:20:38.650Z,7.50
2018-12-04T08:23:06.139Z,7.50
2018-12-04T08:25:33.683Z,7.40
2018-12-04T08:28:01.172Z,7.40
2018-12-04T08:30:28.659Z,7.40
2018-12-04T08:32:56.162Z,7.30
2018-12-04T08:35:23.654Z,7.20
2018-12-04T08:37:51.144Z,7.10
2018-12-04T08:40:18.650Z,7.10
2018-12-04T08:42:46.151Z,7.10
2018-12-04T08:45:13.648Z,7.10
2018-12-04T08:47:41.153Z,7.10
2018-12-04T08:50:08.749Z,7.20
2018-12-04T08:52:36.269Z,7.20
2018-12-04T08:55:04.637Z,7.20
2018-12-04T08:57:32.123Z,7.30
2018-12-04T08:59:59.625Z,7.40
2018-12-04T09:02:27.130Z,7.50
2018-12-04T09:04:54.639Z,7.50
2018-12-04T09:07:22.152Z,7.50
2018-12-04T09:09:49.633Z,7.50
2018-12-04T09:12:17.126Z,7.60
2018-12-04T09:14:44.635Z,7.60
2018-12-04T09:17:12.130Z,7.70
2018-12-04T09:19:39.639Z,7.70
2018-12-04T09:22:07.284Z,7.70
2018-12-04T09:24:34.903Z,7.70
2018-12-04T09:27:05.518Z,7.70
2018-12-04T09:29:32.010Z,7.70
2018-12-04T09:31:59.689Z,7.80
2018-12-04T09:34:29.822Z,7.80
2018-12-04T09:36:56.722Z,7.90
2018-12-04T09:39:24.210Z,8.00
2018-12-04T09:41:51.711Z,8.10
2018-12-04T09:44:19.197Z,8.20
2018-12-04T09:46:46.706Z,8.20
2018-12-04T09:49:14.212Z,8.20
2018-12-04T09:51:41.701Z,8.30
2018-12-04T09:54:09.268Z,8.30
2018-12-04T09:56:36.936Z,8.30
2018-12-04T09:59:04.563Z,8.30
2018-12-04T10:01:32.126Z,8.40
2018-12-04T10:03:59.614Z,8.50
2018-12-04T10:06:27.146Z,8.70
2018-12-04T10:08:54.646Z,8.80
2018-12-04T10:11:22.158Z,8.90
2018-12-04T10:13:49.644Z,9.00
2018-12-04T10:16:17.144Z,9.00
2018-12-04T10:18:47.675Z,9.00
2018-12-04T10:21:14.147Z,9.00
2018-12-04T10:23:41.661Z,9.00
2018-12-04T10:26:09.201Z,8.90
2018-12-04T10:28:36.687Z,8.90
2018-12-04T10:31:09.039Z,8.90
2018-12-04T10:33:37.002Z,8.90
2018-12-04T10:36:04.590Z,8.90
2018-12-04T10:38:32.095Z,8.90
2018-12-04T10:40:59.583Z,8.70
2018-12-04T10:43:27.094Z,8.40
2018-12-04T10:45:54.615Z,8.00
2018-12-04T10:48:22.118Z,7.70
2018-12-04T10:50:49.602Z,7.40
2018-12-04T10:53:17.087Z,7.20
2018-12-04T10:55:44.618Z,7.00
2018-12-04T10:58:12.213Z,6.90
2018-12-04T11:00:45.340Z,6.80
2018-12-04T11:03:13.027Z,6.70
2018-12-04T11:05:41.128Z,6.70
2018-12-04T11:08:08.650Z,6.80
2018-12-04T11:10:36.147Z,6.80
2018-12-04T11:13:03.756Z,6.90
2018-12-04T11:15:31.257Z,6.90
2018-12-04T11:17:58.736Z,6.90
2018-12-04T11:20:26.244Z,6.90
2018-12-04T11:22:53.733Z,6.90
2018-12-04T11:25:21.254Z,6.90
2018-12-04T11:27:48.766Z,6.90
2018-12-04T11:30:16.266Z,6.90
2018-12-04T11:32:43.796Z,6.90
2018-12-04T11:35:11.287Z,7.00
2018-12-04T11:37:38.786Z,7.00
2018-12-04T11:40:06.949Z,7.00
2018-12-04T11:42:34.450Z,7.00
2018-12-04T11:45:01.976Z,7.00
2018-12-04T11:47:29.471Z,7.00
2018-12-04T11:49:56.980Z,7.00
2018-12-04T11:52:24.542Z,7.00
2018-12-04T11:54:52.034Z,7.00
2018-12-04T11:57:20.917Z,7.00
2018-12-04T11:59:48.401Z,7.00
2018-12-04T12:02:16.069Z,6.90
2018-12-04T12:04:43.654Z,6.90
2018-12-04T12:07:11.250Z,6.90
2018-12-04T12:09:38.734Z,6.90
2018-12-04T12:12:06.225Z,6.70
2018-12-04T12:14:33.747Z,6.70
2018-12-04T12:17:01.245Z,6.70
2018-12-04T12:19:28.755Z,6.80
2018-12-04T12:21:56.240Z,6.80
2018-12-04T12:24:23.731Z,6.80
2018-12-04T12:26:51.246Z,6.80
2018-12-04T12:29:18.740Z,6.80
2018-12-04T12:31:46.297Z,6.80
2018-12-04T12:34:13.854Z,6.80
2018-12-04T12:36:41.371Z,6.70
2018-12-04T12:39:08.881Z,6.60
2018-12-04T12:41:36.373Z,6.50
2018-12-04T12:44:03.968Z,6.60
2018-12-04T12:46:31.470Z,6.60
2018-12-04T12:48:58.963Z,6.60
2018-12-04T12:51:26.469Z,6.70
2018-12-04T12:53:53.963Z,6.70
2018-12-04T12:56:21.473Z,6.80
2018-12-04T12:58:48.987Z,6.80
2018-12-04T13:01:16.481Z,6.80
2018-12-04T13:03:44.006Z,6.80
2018-12-04T13:06:11.566Z,6.80
2018-12-04T13:08:39.082Z,6.80
2018-12-04T13:11:06.598Z,6.80
2018-12-04T13:13:36.864Z,6.70
2018-12-04T13:16:03.774Z,6.70
2018-12-04T13:18:31.347Z,6.60
2018-12-04T13:20:58.881Z,6.70
2018-12-04T13:23:26.381Z,6.70
2018-12-04T13:25:53.891Z,6.70
2018-12-04T13:28:21.390Z,6.70
2018-12-04T13:30:48.901Z,6.60
2018-12-04T13:33:16.609Z,6.60
2018-12-04T13:35:44.103Z,6.40
2018-12-04T13:38:11.611Z,6.30
2018-12-04T13:40:39.202Z,6.30
2018-12-04T13:43:06.778Z,6.30
2018-12-04T13:45:34.428Z,6.30
2018-12-04T13:48:01.923Z,6.40
2018-12-04T13:50:29.419Z,6.40
2018-12-04T13:52:56.969Z,6.30
2018-12-04T13:55:24.569Z,6.30
2018-12-04T13:57:52.074Z,6.20
2018-12-04T14:00:19.687Z,6.30
2018-12-04T14:02:47.174Z,6.30
2018-12-04T14:05:14.797Z,6.20
2018-12-04T14:07:42.289Z,6.20
2018-12-04T14:10:10.046Z,6.20
2018-12-04T14:12:37.606Z,6.10
2018-12-04T14:15:05.383Z,6.10
2018-12-04T14:17:33.081Z,6.20
2018-12-04T14:20:00.574Z,6.10
2018-12-04T14:22:28.199Z,6.10
2018-12-04T14:24:55.807Z,6.00
2018-12-04T14:27:23.298Z,5.90
2018-12-04T14:29:50.837Z,5.80
2018-12-04T14:32:18.417Z,5.80
2018-12-04T14:34:46.022Z,5.70
2018-12-04T14:37:13.555Z,5.70
2018-12-04T14:39:41.076Z,5.70
2018-12-04T14:42:08.684Z,5.70
2018-12-04T14:44:36.331Z,5.60
2018-12-04T14:47:03.924Z,5.60
2018-12-04T14:49:31.455Z,5.70
2018-12-04T14:51:59.046Z,5.70
2018-12-04T14:54:26.564Z,5.80
2018-12-04T14:56:54.054Z,5.80
2018-12-04T14:59:21.567Z,5.80
2018-12-04T15:01:49.109Z,5.80
2018-12-04T15:04:16.753Z,5.90
2018-12-04T15:06:44.368Z,5.90
2018-12-04T15:09:11.967Z,5.90
2018-12-04T15:11:39.502Z,5.90
2018-12-04T15:14:07.131Z,5.90
2018-12-04T15:16:34.705Z,5.90
2018-12-04T15:19:02.258Z,5.90
2018-12-04T15:21:29.855Z,5.90
2018-12-04T15:23:57.509Z,5.90
2018-12-04T15:26:25.093Z,5.90
2018-12-04T15:28:52.591Z,5.90
2018-12-04T15:31:20.107Z,5.90
2018-12-04T15:33:47.607Z,5.80
2018-12-04T15:36:15.166Z,5.80
2018-12-04T15:38:42.655Z,5.70
2018-12-04T15:41:10.408Z,5.80
2018-12-04T15:43:38.064Z,5.80
2018-12-04T15:46:05.672Z,5.80
2018-12-04T15:48:33.282Z,5.70
2018-12-04T15:51:00.829Z,5.60
2018-12-04T15:53:28.448Z,5.50
2018-12-04T15:55:56.161Z,5.40
2018-12-04T15:58:23.687Z,5.30
2018-12-04T16:00:51.190Z,5.20
2018-12-04T16:03:18.705Z,5.20
2018-12-04T16:05:46.193Z,5.20
2018-12-04T16:08:14.251Z,5.30
2018-12-04T16:10:41.851Z,5.30
2018-12-04T16:13:09.365Z,5.40
2018-12-04T16:15:37.190Z,5.50
2018-12-04T16:18:04.973Z,5.50
2018-12-04T16:20:32.683Z,5.70
2018-12-04T16:23:00.317Z,5.80
2018-12-04T16:25:28.200Z,5.80
2018-12-04T16:27:55.872Z,5.80
2018-12-04T16:30:24.043Z,5.90
2018-12-04T16:32:51.555Z,5.90
2018-12-04T16:35:19.047Z,5.80
2018-12-04T16:37:46.558Z,5.80
2018-12-04T16:40:14.052Z,5.90
2018-12-04T16:42:41.578Z,5.90
2018-12-04T16:45:09.491Z,5.80
2018-12-04T16:47:37.718Z,5.90
2018-12-04T16:50:05.693Z,5.80
2018-12-04T16:52:33.554Z,5.80
2018-12-04T16:55:01.062Z,5.90
2018-12-04T16:57:28.598Z,5.90
2018-12-04T16:59:56.094Z,5.90
2018-12-04T17:02:23.626Z,5.80
2018-12-04T17:04:51.115Z,5.50
2018-12-04T17:07:18.611Z,5.30
2018-12-04T17:09:46.113Z,5.20
2018-12-04T17:12:13.599Z,5.10
2018-12-04T17:14:41.126Z,5.00
2018-12-04T17:17:08.699Z,4.90
2018-12-04T17:19:36.378Z,4.90
2018-12-04T17:22:04.217Z,4.90
2018-12-04T17:24:31.732Z,4.90
2018-12-04T17:26:59.314Z,5.00
2018-12-04T17:29:26.801Z,5.10
2018-12-04T17:31:54.282Z,5.20
2018-12-04T17:34:21.789Z,5.20
2018-12-04T17:36:49.282Z,5.20
2018-12-04T17:39:16.810Z,5.20
2018-12-04T17:41:44.307Z,5.10
2018-12-04T17:44:11.795Z,5.20
2018-12-04T17:46:39.369Z,5.20
2018-12-04T17:49:06.890Z,5.30
2018-12-04T17:51:34.393Z,5.40
2018-12-04T17:54:01.881Z,5.50
2018-12-04T17:56:29.360Z,5.50
2018-12-04T17:58:56.868Z,5.50
2018-12-04T18:01:24.372Z,5.50
2018-12-04T18:03:51.873Z,5.50
2018-12-04T18:06:19.362Z,5.50
2018-12-04T18:08:46.849Z,5.40
2018-12-04T18:11:14.356Z,5.30
2018-12-04T18:13:41.882Z,5.30
2018-12-04T18:16:09.394Z,5.30
2018-12-04T18:18:36.886Z,5.40
2018-12-04T18:21:04.374Z,5.30
2018-12-04T18:23:31.901Z,5.20
2018-12-04T18:25:59.390Z,5.20
2018-12-04T18:28:26.895Z,5.20
2018-12-04T18:30:54.407Z,5.30
2018-12-04T18:33:21.899Z,5.20
2018-12-04T18:35:49.409Z,5.10
2018-12-04T18:38:16.898Z,5.10
2018-12-04T18:40:44.446Z,5.10
2018-12-04T18:43:12.584Z,5.10
2018-12-04T18:45:40.282Z,5.10
2018-12-04T18:48:08.850Z,5.10
2018-12-04T18:50:36.335Z,5.20
2018-12-04T18:53:03.831Z,5.20
2018-12-04T18:55:31.351Z,5.30
2018-12-04T18:57:58.846Z,5.30
2018-12-04T19:00:26.426Z,5.20
2018-12-04T19:02:55.591Z,5.30
2018-12-04T19:05:23.074Z,5.20
2018-12-04T19:07:50.678Z,5.10
2018-12-04T19:10:18.170Z,5.10
2018-12-04T19:12:45.757Z,5.10
2018-12-04T19:15:14.828Z,5.10
2018-12-04T19:17:42.384Z,5.00
2018-12-04T19:20:09.929Z,5.10
2018-12-04T19:22:38.748Z,5.20
2018-12-04T19:25:06.575Z,5.10
2018-12-04T19:27:34.095Z,5.10
2018-12-04T19:30:04.519Z,5.10
2018-12-04T19:32:32.043Z,5.10
2018-12-04T19:34:59.536Z,5.10
2018-12-04T19:37:27.048Z,5.10
2018-12-04T19:39:55.133Z,5.20
2018-12-04T19:42:22.615Z,5.10
2018-12-04T19:44:50.133Z,5.20
2018-12-04T19:47:17.618Z,5.10
2018-12-04T19:49:45.126Z,5.10
2018-12-04T19:52:12.619Z,5.20
2018-12-04T19:54:40.666Z,5.20
2018-12-04T19:57:08.158Z,5.20
2018-12-04T19:59:35.967Z,5.20
2018-12-04T20:02:03.564Z,5.10
2018-12-04T20:04:31.083Z,5.20
2018-12-04T20:06:58.584Z,5.20
2018-12-04T20:09:26.067Z,5.20
2018-12-04T20:11:53.545Z,5.20
2018-12-04T20:14:21.043Z,5.20
2018-12-04T20:16:48.545Z,5.00
2018-12-04T20:19:16.119Z,5.00
2018-12-04T20:21:43.614Z,4.90
2018-12-04T20:24:11.207Z,4.80
2018-12-04T20:26:38.715Z,4.80
2018-12-04T20:29:06.195Z,4.90
2018-12-04T20:31:33.702Z,5.00
2018-12-04T20:34:01.191Z,5.00
2018-12-04T20:36:28.677Z,5.00
2018-12-04T20:38:56.501Z,5.10
2018-12-04T20:41:23.985Z,5.00
2018-12-04T20:43:51.727Z,5.00
2018-12-04T20:46:19.214Z,4.90
2018-12-04T20:48:46.767Z,4.90
2018-12-04T20:51:14.269Z,4.80
2018-12-04T20:53:41.755Z,4.80
2018-12-04T20:56:09.265Z,4.80
2018-12-04T20:58:36.769Z,4.70
2018-12-04T21:01:04.399Z,4.70
2018-12-04T21:03:31.894Z,4.80
2018-12-04T21:05:59.369Z,4.70
2018-12-04T21:08:26.885Z,4.60
2018-12-04T21:10:54.395Z,4.50
2018-12-04T21:13:21.878Z,4.50
2018-12-04T21:15:49.612Z,4.60
2018-12-04T21:18:17.107Z,4.70
2018-12-04T21:20:44.627Z,4.70
2018-12-04T21:23:12.118Z,4.60
2018-12-04T21:25:39.634Z,4.60
2018-12-04T21:28:12.711Z,4.50
2018-12-04T21:30:52.965Z,4.50
2018-12-04T21:33:26.108Z,4.40
2018-12-04T21:35:59.223Z,4.40
2018-12-04T21:38:32.498Z,4.50
2018-12-04T21:41:02.638Z,4.50
2018-12-04T21:43:35.804Z,4.40
2018-12-04T21:46:09.135Z,4.40
2018-12-04T21:48:36.618Z,4.40
2018-12-04T21:51:04.183Z,4.30
2018-12-04T21:53:31.769Z,4.30
2018-12-04T21:55:59.259Z,4.40
2018-12-04T21:58:26.776Z,4.50
2018-12-04T22:00:54.280Z,4.50
2018-12-04T22:03:21.768Z,4.40
2018-12-04T22:05:49.289Z,4.40
2018-12-04T22:08:16.769Z,4.40
2018-12-04T22:10:44.386Z,4.50
2018-12-04T22:13:11.870Z,4.50
2018-12-04T22:15:39.346Z,4.50
2018-12-04T22:18:06.842Z,4.50
2018-12-04T22:20:34.321Z,4.50
2018-12-04T22:23:01.853Z,4.60
2018-12-04T22:25:29.339Z,4.60
2018-12-04T22:27:56.901Z,4.70
2018-12-04T22:30:24.406Z,4.80
2018-12-04T22:32:51.891Z,4.70
2018-12-04T22:35:19.418Z,4.70
2018-12-04T22:37:46.909Z,4.60
2018-12-04T22:40:14.390Z,4.60
2018-12-04T22:42:41.895Z,4.60
2018-12-04T22:45:15.071Z,4.70
2018-12-04T22:47:42.574Z,4.70
2018-12-04T22:50:10.078Z,4.60
2018-12-04T22:52:37.634Z,4.50
2018-12-04T22:55:05.214Z,4.40
2018-12-04T22:57:32.704Z,4.30
2018-12-04T23:00:00.234Z,4.20
2018-12-04T23:02:27.713Z,4.10
2018-12-04T23:04:55.192Z,4.10
2018-12-04T23:07:22.694Z,4.00
2018-12-04T23:09:50.183Z,4.00
2018-12-04T23:12:17.697Z,4.10
2018-12-04T23:14:45.258Z,4.10
2018-12-04T23:17:12.758Z,4.10
2018-12-04T23:19:40.258Z,4.10
2018-12-04T23:22:07.738Z,4.10
2018-12-04T23:24:35.243Z,4.00
2018-12-04T23:27:02.731Z,4.10
2018-12-04T23:29:30.222Z,4.00
2018-12-04T23:31:57.727Z,4.10
2018-12-04T23:34:25.206Z,4.00
2018-12-04T23:36:52.727Z,4.00
2018-12-04T23:39:20.209Z,4.00
2018-12-04T23:41:47.718Z,4.00
2018-12-04T23:44:15.707Z,4.00
2018-12-04T23:46:43.191Z,3.90
2018-12-04T23:49:10.695Z,4.00
2018-12-04T23:51:38.198Z,4.00
2018-12-04T23:54:05.681Z,4.00
2018-12-04T23:56:33.269Z,4.00
2018-12-04T23:59:00.751Z,4.00
